createdAt,value
2018-05-03T00:01:23.407Z,10.77
2018-05-03T00:03:51.335Z,10.71
2018-05-03T00:06:19.244Z,10.62
2018-05-03T00:08:47.150Z,10.60
2018-05-03T00:11:15.106Z,10.58
2018-05-03T00:13:43.015Z,10.58
2018-05-03T00:16:10.942Z,10.41
2018-05-03T00:18:38.863Z,10.39
2018-05-03T00:21:06.801Z,10.43
2018-05-03T00:23:34.776Z,10.31
2018-05-03T00:26:02.695Z,10.41
2018-05-03T00:28:30.638Z,10.37
2018-05-03T00:30:58.533Z,10.34
2018-05-03T00:33:26.483Z,10.24
2018-05-03T00:35:54.427Z,10.15
2018-05-03T00:38:22.343Z,10.14
2018-05-03T00:40:50.263Z,10.18
2018-05-03T00:43:18.163Z,10.14
2018-05-03T00:45:46.117Z,10.13
2018-05-03T00:48:14.044Z,10.08
2018-05-03T00:50:42.011Z,10.01
2018-05-03T00:53:09.889Z,9.98
2018-05-03T00:55:37.821Z,9.99
2018-05-03T00:58:05.711Z,10.08
2018-05-03T01:00:33.640Z,10.10
2018-05-03T01:03:01.635Z,10.11
2018-05-03T01:05:29.543Z,10.14
2018-05-03T01:07:57.442Z,10.21
2018-05-03T01:10:25.360Z,10.26
2018-05-03T01:12:53.271Z,10.25
2018-05-03T01:15:21.243Z,10.21
2018-05-03T01:17:49.127Z,10.28
2018-05-03T01:20:17.648Z,10.24
2018-05-03T01:22:45.599Z,10.27
2018-05-03T01:25:13.519Z,10.11
2018-05-03T01:27:41.452Z,10.08
2018-05-03T01:30:09.370Z,9.98
2018-05-03T01:32:37.331Z,10.10
2018-05-03T01:38:02.663Z,10.03
2018-05-03T01:40:30.571Z,10.04
2018-05-03T01:42:58.554Z,10.03
2018-05-03T01:45:26.482Z,10.04
2018-05-03T01:47:54.402Z,9.99
2018-05-03T01:50:22.316Z,10.06
2018-05-03T01:52:50.259Z,10.13
2018-05-03T01:55:18.188Z,10.03
2018-05-03T01:57:46.123Z,9.85
2018-05-03T02:00:14.022Z,9.82
2018-05-03T02:05:16.293Z,9.71
2018-05-03T02:07:44.236Z,9.59
2018-05-03T02:10:12.158Z,9.68
2018-05-03T02:12:40.153Z,9.68
2018-05-03T02:15:08.088Z,9.55
2018-05-03T02:17:36.004Z,9.53
2018-05-03T02:20:03.903Z,9.61
2018-05-03T02:22:31.815Z,9.57
2018-05-03T02:24:59.883Z,9.59
2018-05-03T02:27:27.781Z,9.57
2018-05-03T02:29:55.725Z,9.48
2018-05-03T02:32:23.652Z,9.45
2018-05-03T02:34:51.547Z,9.65
2018-05-03T02:37:19.450Z,9.53
2018-05-03T02:39:47.405Z,9.57
2018-05-03T02:42:15.294Z,9.67
2018-05-03T02:44:43.235Z,9.67
2018-05-03T02:47:11.429Z,9.61
2018-05-03T02:49:39.356Z,9.52
2018-05-03T02:52:07.547Z,9.48
2018-05-03T02:54:35.460Z,9.52
2018-05-03T02:57:15.087Z,9.51
2018-05-03T02:59:54.626Z,9.46
2018-05-03T03:02:28.321Z,9.51
2018-05-03T03:08:21.023Z,9.47
2018-05-03T03:11:17.133Z,9.56
2018-05-03T03:14:02.513Z,9.30
2018-05-03T03:16:48.052Z,9.27
2018-05-03T03:19:27.905Z,9.22
2018-05-03T03:22:13.341Z,9.24
2018-05-03T03:24:53.046Z,9.24
2018-05-03T03:27:38.400Z,9.16
2018-05-03T03:30:34.663Z,8.96
2018-05-03T03:33:14.343Z,8.89
2018-05-03T03:36:02.832Z,8.82
2018-05-03T03:38:42.515Z,8.83
2018-05-03T03:41:22.148Z,8.72
2018-05-03T03:44:01.768Z,8.68
2018-05-03T03:46:29.671Z,8.62
2018-05-03T03:48:57.627Z,8.73
2018-05-03T03:51:25.648Z,8.80
2018-05-03T03:53:53.541Z,8.73
2018-05-03T03:56:21.469Z,8.75
2018-05-03T03:58:49.382Z,8.80
2018-05-03T04:01:17.415Z,8.89
2018-05-03T04:03:45.363Z,8.90
2018-05-03T04:06:13.303Z,8.73
2018-05-03T04:08:41.297Z,8.67
2018-05-03T04:11:09.212Z,8.68
2018-05-03T04:13:37.421Z,8.91
2018-05-03T04:16:05.351Z,8.82
2018-05-03T04:18:44.994Z,9.07
2018-05-03T04:21:24.559Z,9.03
2018-05-03T04:24:13.077Z,9.10
2018-05-03T04:26:41.020Z,9.07
2018-05-03T04:29:08.985Z,9.09
2018-05-03T04:31:36.898Z,9.10
2018-05-03T04:34:05.111Z,9.21
2018-05-03T04:36:33.048Z,9.12
2018-05-03T04:39:00.990Z,9.10
2018-05-03T04:41:28.988Z,9.08
2018-05-03T04:43:56.911Z,9.12
2018-05-03T04:46:24.818Z,9.23
2018-05-03T04:48:52.876Z,9.14
2018-05-03T04:51:20.895Z,9.05
2018-05-03T04:53:48.856Z,8.85
2018-05-03T04:56:16.804Z,9.03
2018-05-03T04:58:44.715Z,8.96
2018-05-03T05:01:12.635Z,8.92
2018-05-03T05:03:40.556Z,8.92
2018-05-03T05:06:08.481Z,8.93
2018-05-03T05:08:36.419Z,9.08
2018-05-03T05:11:04.344Z,9.18
2018-05-03T05:13:32.281Z,9.25
2018-05-03T05:16:00.218Z,9.44
2018-05-03T05:18:28.120Z,9.64
2018-05-03T05:20:56.064Z,9.79
2018-05-03T05:23:24.009Z,9.91
2018-05-03T05:25:51.949Z,10.25
2018-05-03T05:28:19.865Z,10.34
2018-05-03T05:30:47.879Z,10.36
2018-05-03T05:33:15.761Z,10.50
2018-05-03T05:35:43.767Z,10.68
2018-05-03T05:38:11.700Z,10.70
2018-05-03T05:40:39.604Z,10.79
2018-05-03T05:43:07.556Z,10.96
2018-05-03T05:45:35.475Z,10.93
2018-05-03T05:48:03.477Z,11.05
2018-05-03T05:50:31.407Z,11.26
2018-05-03T05:52:59.381Z,11.23
2018-05-03T05:55:27.347Z,11.46
2018-05-03T05:57:55.509Z,11.62
2018-05-03T06:00:23.516Z,11.64
2018-05-03T06:02:51.472Z,11.86
2018-05-03T06:05:19.403Z,11.93
2018-05-03T06:07:47.383Z,12.02
2018-05-03T06:10:15.325Z,12.22
2018-05-03T06:12:43.301Z,12.44
2018-05-03T06:15:11.227Z,12.66
2018-05-03T06:17:39.171Z,12.78
2018-05-03T06:20:07.082Z,12.74
2018-05-03T06:22:35.048Z,12.95
2018-05-03T06:25:02.966Z,13.05
2018-05-03T06:27:30.885Z,13.16
2018-05-03T06:29:58.804Z,13.21
2018-05-03T06:32:26.731Z,13.35
2018-05-03T06:34:54.759Z,13.44
2018-05-03T06:37:22.683Z,13.64
2018-05-03T06:39:50.611Z,13.59
2018-05-03T06:42:18.568Z,13.75
2018-05-03T06:44:46.531Z,13.81
2018-05-03T06:47:14.512Z,13.75
2018-05-03T06:49:42.422Z,13.84
2018-05-03T06:52:10.362Z,14.19
2018-05-03T06:54:38.399Z,14.37
2018-05-03T06:57:06.426Z,14.35
2018-05-03T06:59:34.397Z,14.37
2018-05-03T07:02:03.186Z,14.69
2018-05-03T07:04:31.181Z,15.09
2018-05-03T07:06:59.095Z,15.21
2018-05-03T07:09:27.035Z,15.12
2018-05-03T07:11:54.943Z,15.27
2018-05-03T07:14:22.878Z,15.48
2018-05-03T07:16:50.824Z,15.12
2018-05-03T07:19:18.843Z,15.36
2018-05-03T07:21:46.710Z,15.75
2018-05-03T07:24:14.651Z,15.84
2018-05-03T07:26:42.607Z,16.31
2018-05-03T07:29:10.512Z,16.04
2018-05-03T07:31:38.471Z,16.01
2018-05-03T07:34:06.385Z,16.01
2018-05-03T07:36:34.361Z,15.73
2018-05-03T07:39:02.275Z,16.10
2018-05-03T07:41:30.196Z,16.33
2018-05-03T07:43:58.120Z,16.22
2018-05-03T07:46:26.044Z,16.41
2018-05-03T07:48:53.972Z,16.39
2018-05-03T07:51:21.911Z,15.75
2018-05-03T07:53:49.895Z,15.73
2018-05-03T07:56:17.818Z,15.83
2018-05-03T07:58:45.759Z,15.82
2018-05-03T08:01:13.678Z,16.25
2018-05-03T08:03:41.625Z,15.91
2018-05-03T08:06:09.539Z,15.88
2018-05-03T08:08:37.461Z,16.01
2018-05-03T08:11:05.383Z,16.06
2018-05-03T08:13:33.314Z,16.13
2018-05-03T08:16:01.241Z,16.13
2018-05-03T08:18:29.193Z,16.02
2018-05-03T08:20:57.314Z,16.00
2018-05-03T08:23:25.248Z,16.01
2018-05-03T08:25:53.188Z,16.27
2018-05-03T08:28:21.123Z,16.03
2018-05-03T08:30:49.054Z,15.58
2018-05-03T08:33:17.007Z,15.84
2018-05-03T08:35:44.916Z,15.80
2018-05-03T08:38:13.370Z,16.05
2018-05-03T08:40:41.275Z,16.12
2018-05-03T08:43:09.182Z,15.55
2018-05-03T08:45:37.118Z,15.43
2018-05-03T08:48:05.048Z,14.99
2018-05-03T08:50:33.006Z,14.97
2018-05-03T08:53:01.333Z,14.82
2018-05-03T08:55:29.289Z,14.74
2018-05-03T08:57:57.221Z,14.58
2018-05-03T09:00:25.135Z,14.32
2018-05-03T09:02:53.095Z,14.20
2018-05-03T09:05:21.043Z,13.90
2018-05-03T09:07:49.080Z,14.25
2018-05-03T09:10:16.973Z,14.14
2018-05-03T09:12:44.927Z,13.91
2018-05-03T09:15:12.864Z,13.69
2018-05-03T09:17:40.800Z,13.89
2018-05-03T09:20:08.695Z,14.25
2018-05-03T09:22:36.610Z,14.49
2018-05-03T09:25:04.747Z,15.27
2018-05-03T09:27:32.655Z,15.03
2018-05-03T09:30:00.547Z,15.65
2018-05-03T09:32:28.447Z,15.43
2018-05-03T09:34:56.642Z,15.45
2018-05-03T09:37:24.507Z,15.15
2018-05-03T09:39:52.444Z,14.97
2018-05-03T09:42:20.364Z,15.00
2018-05-03T09:44:48.312Z,14.69
2018-05-03T09:47:16.191Z,14.86
2018-05-03T09:49:44.100Z,14.73
2018-05-03T09:52:12.008Z,15.02
2018-05-03T09:54:39.930Z,15.16
2018-05-03T09:57:07.863Z,14.88
2018-05-03T09:59:35.816Z,15.13
2018-05-03T10:02:03.735Z,15.11
2018-05-03T10:04:31.637Z,15.06
2018-05-03T10:06:59.610Z,15.06
2018-05-03T10:09:27.534Z,15.46
2018-05-03T10:11:55.447Z,15.29
2018-05-03T10:14:23.369Z,15.02
2018-05-03T10:16:51.278Z,15.63
2018-05-03T10:19:19.180Z,15.17
2018-05-03T10:21:47.109Z,15.22
2018-05-03T10:24:15.004Z,15.02
2018-05-03T10:26:42.920Z,14.74
2018-05-03T10:29:10.842Z,15.42
2018-05-03T10:31:38.819Z,15.22
2018-05-03T10:34:06.727Z,15.43
2018-05-03T10:36:34.631Z,16.03
2018-05-03T10:39:02.555Z,16.47
2018-05-03T10:41:30.448Z,16.01
2018-05-03T10:43:58.379Z,15.99
2018-05-03T10:46:26.342Z,16.11
2018-05-03T10:48:54.256Z,16.10
2018-05-03T10:51:22.183Z,15.66
2018-05-03T10:53:50.108Z,15.59
2018-05-03T10:56:18.032Z,15.99
2018-05-03T10:58:45.925Z,15.92
2018-05-03T11:01:13.848Z,16.05
2018-05-03T11:03:41.766Z,16.18
2018-05-03T11:06:09.677Z,16.32
2018-05-03T11:08:37.587Z,16.32
2018-05-03T11:11:05.554Z,16.00
2018-05-03T11:13:34.263Z,15.98
2018-05-03T11:16:02.164Z,15.63
2018-05-03T11:18:30.273Z,15.89
2018-05-03T11:20:58.376Z,16.10
2018-05-03T11:23:26.540Z,16.22
2018-05-03T11:25:54.439Z,15.92
2018-05-03T11:28:22.346Z,16.52
2018-05-03T11:30:50.237Z,16.32
2018-05-03T11:33:18.163Z,17.26
2018-05-03T11:35:46.071Z,17.65
2018-05-03T11:38:14.161Z,17.70
2018-05-03T11:40:42.052Z,17.46
2018-05-03T11:43:10.019Z,17.24
2018-05-03T11:45:37.930Z,16.69
2018-05-03T11:48:05.857Z,16.80
2018-05-03T11:50:33.756Z,16.65
2018-05-03T11:53:01.768Z,16.46
2018-05-03T11:55:29.690Z,16.43
2018-05-03T11:57:57.602Z,16.57
2018-05-03T12:00:25.526Z,16.74
2018-05-03T12:02:53.472Z,16.42
2018-05-03T12:05:21.402Z,16.61
2018-05-03T12:07:49.318Z,16.41
2018-05-03T12:10:17.610Z,16.74
2018-05-03T12:12:45.528Z,16.74
2018-05-03T12:15:13.423Z,16.62
2018-05-03T12:17:41.410Z,16.88
2018-05-03T12:20:09.335Z,17.18
2018-05-03T12:22:37.238Z,16.47
2018-05-03T12:25:05.146Z,16.49
2018-05-03T12:27:33.043Z,16.73
2018-05-03T12:30:00.971Z,17.01
2018-05-03T12:32:28.875Z,17.52
2018-05-03T12:34:56.867Z,17.50
2018-05-03T12:37:24.713Z,17.56
2018-05-03T12:39:52.709Z,17.00
2018-05-03T12:42:20.623Z,17.19
2018-05-03T12:44:48.553Z,17.38
2018-05-03T12:47:16.480Z,17.22
2018-05-03T12:49:44.401Z,16.89
2018-05-03T12:52:12.296Z,16.74
2018-05-03T12:54:40.257Z,16.76
2018-05-03T12:57:08.164Z,17.19
2018-05-03T12:59:36.091Z,17.23
2018-05-03T13:02:03.996Z,17.81
2018-05-03T13:04:31.937Z,17.66
2018-05-03T13:06:59.869Z,17.90
2018-05-03T13:09:27.787Z,18.27
2018-05-03T13:11:55.696Z,18.57
2018-05-03T13:14:23.638Z,18.66
2018-05-03T13:16:51.635Z,18.79
2018-05-03T13:19:19.619Z,18.43
2018-05-03T13:21:47.557Z,18.50
2018-05-03T13:24:15.519Z,18.50
2018-05-03T13:26:43.427Z,18.05
2018-05-03T13:29:11.340Z,18.37
2018-05-03T13:31:39.263Z,18.59
2018-05-03T13:34:07.164Z,18.14
2018-05-03T13:36:35.109Z,18.37
2018-05-03T13:39:03.024Z,18.11
2018-05-03T13:41:30.968Z,18.26
2018-05-03T13:43:58.893Z,18.19
2018-05-03T13:46:26.804Z,18.76
2018-05-03T13:48:54.742Z,18.97
2018-05-03T13:51:22.646Z,18.84
2018-05-03T13:53:50.571Z,18.87
2018-05-03T13:56:18.507Z,18.67
2018-05-03T13:58:46.425Z,18.71
2018-05-03T14:01:14.394Z,18.77
2018-05-03T14:03:42.299Z,18.87
2018-05-03T14:06:10.203Z,18.72
2018-05-03T14:08:38.182Z,18.61
2018-05-03T14:11:06.078Z,18.69
2018-05-03T14:13:33.999Z,18.83
2018-05-03T14:16:01.914Z,18.79
2018-05-03T14:18:30.092Z,19.29
2018-05-03T14:20:58.079Z,19.04
2018-05-03T14:23:25.937Z,19.16
2018-05-03T14:25:53.856Z,19.18
2018-05-03T14:28:21.763Z,18.77
2018-05-03T14:30:49.729Z,18.99
2018-05-03T14:33:18.354Z,18.55
2018-05-03T14:35:46.281Z,18.33
2018-05-03T14:38:14.205Z,18.25
2018-05-03T14:40:42.176Z,18.20
2018-05-03T14:43:10.090Z,18.27
2018-05-03T14:45:38.029Z,18.05
2018-05-03T14:48:06.029Z,18.12
2018-05-03T14:50:33.951Z,18.21
2018-05-03T14:53:01.868Z,17.73
2018-05-03T14:55:29.822Z,17.74
2018-05-03T14:57:57.720Z,17.83
2018-05-03T15:00:25.700Z,17.53
2018-05-03T15:02:53.786Z,17.49
2018-05-03T15:05:21.733Z,17.34
2018-05-03T15:07:49.656Z,17.24
2018-05-03T15:10:17.582Z,17.37
2018-05-03T15:12:45.504Z,17.23
2018-05-03T15:15:13.472Z,17.18
2018-05-03T15:17:41.432Z,16.87
2018-05-03T15:20:09.350Z,16.80
2018-05-03T15:22:37.412Z,16.56
2018-05-03T15:25:05.311Z,16.54
2018-05-03T15:27:33.248Z,16.56
2018-05-03T15:30:01.180Z,16.61
2018-05-03T15:32:29.260Z,16.58
2018-05-03T15:34:57.167Z,16.75
2018-05-03T15:37:25.156Z,16.70
2018-05-03T15:39:53.088Z,16.66
2018-05-03T15:42:20.996Z,16.85
2018-05-03T15:44:48.986Z,16.71
2018-05-03T15:47:16.882Z,16.63
2018-05-03T15:49:44.811Z,16.46
2018-05-03T15:52:12.708Z,16.60
2018-05-03T15:54:40.640Z,16.32
2018-05-03T15:57:08.576Z,16.27
2018-05-03T15:59:36.475Z,16.32
2018-05-03T16:02:04.461Z,16.14
2018-05-03T16:04:32.394Z,16.17
2018-05-03T16:07:00.308Z,16.06
2018-05-03T16:09:28.239Z,15.59
2018-05-03T16:11:56.170Z,15.70
2018-05-03T16:14:24.118Z,15.71
2018-05-03T16:16:52.074Z,15.49
2018-05-03T16:19:20.163Z,15.47
2018-05-03T16:21:48.309Z,15.41
2018-05-03T16:24:16.269Z,15.32
2018-05-03T16:26:44.252Z,15.32
2018-05-03T16:29:12.164Z,15.31
2018-05-03T16:31:40.099Z,15.47
2018-05-03T16:34:08.089Z,15.44
2018-05-03T16:36:36.106Z,15.42
2018-05-03T16:39:04.021Z,15.54
2018-05-03T16:41:32.028Z,15.39
2018-05-03T16:43:59.942Z,15.62
2018-05-03T16:46:27.873Z,15.53
2018-05-03T16:48:55.813Z,15.74
2018-05-03T16:51:23.851Z,15.63
2018-05-03T16:53:51.751Z,15.75
2018-05-03T16:56:19.747Z,15.81
2018-05-03T16:58:47.659Z,15.65
2018-05-03T17:01:15.586Z,15.69
2018-05-03T17:03:43.490Z,15.54
2018-05-03T17:06:11.509Z,15.82
2018-05-03T17:08:39.399Z,15.78
2018-05-03T17:11:07.826Z,15.86
2018-05-03T17:13:35.942Z,15.60
2018-05-03T17:16:04.201Z,15.48
2018-05-03T17:18:32.131Z,15.52
2018-05-03T17:21:00.268Z,15.53
2018-05-03T17:23:28.208Z,15.51
2018-05-03T17:25:56.382Z,15.30
2018-05-03T17:28:24.344Z,14.93
2018-05-03T17:30:52.357Z,14.92
2018-05-03T17:33:20.448Z,14.88
2018-05-03T17:35:48.433Z,14.77
2018-05-03T17:38:16.439Z,14.75
2018-05-03T17:40:44.339Z,14.60
2018-05-03T17:43:12.273Z,14.60
2018-05-03T17:45:40.429Z,14.55
2018-05-03T17:48:08.506Z,14.60
2018-05-03T17:50:36.439Z,14.55
2018-05-03T17:53:04.456Z,14.47
2018-05-03T17:55:32.394Z,14.26
2018-05-03T17:58:00.294Z,14.38
2018-05-03T18:00:28.295Z,14.17
2018-05-03T18:02:57.289Z,14.18
2018-05-03T18:05:25.259Z,14.09
2018-05-03T18:07:53.156Z,14.09
2018-05-03T18:10:21.076Z,14.04
2018-05-03T18:12:49.044Z,14.05
2018-05-03T18:15:17.014Z,13.94
2018-05-03T18:17:45.155Z,13.68
2018-05-03T18:20:13.682Z,13.60
2018-05-03T18:22:41.604Z,13.58
2018-05-03T18:25:09.949Z,13.54
2018-05-03T18:27:38.763Z,13.50
2018-05-03T18:30:06.751Z,13.76
2018-05-03T18:32:34.804Z,13.61
2018-05-03T18:35:02.875Z,13.50
2018-05-03T18:37:30.818Z,13.64
2018-05-03T18:39:58.750Z,13.63
2018-05-03T18:42:26.887Z,13.95
2018-05-03T18:44:54.804Z,13.89
2018-05-03T18:47:22.834Z,13.89
2018-05-03T18:49:50.770Z,13.86
2018-05-03T18:52:18.671Z,13.69
2018-05-03T18:54:46.647Z,13.67
2018-05-03T18:57:14.560Z,13.74
2018-05-03T18:59:42.505Z,13.64
2018-05-03T19:02:10.472Z,13.63
2018-05-03T19:04:38.384Z,13.44
2018-05-03T19:07:06.310Z,13.75
2018-05-03T19:09:34.270Z,13.74
2018-05-03T19:12:02.233Z,13.54
2018-05-03T19:14:30.242Z,13.53
2018-05-03T19:16:58.208Z,13.34
2018-05-03T19:19:26.160Z,13.44
2018-05-03T19:21:54.966Z,13.47
2018-05-03T19:24:22.875Z,13.37
2018-05-03T19:26:50.825Z,13.07
2018-05-03T19:29:18.782Z,13.05
2018-05-03T19:31:46.757Z,13.37
2018-05-03T19:34:15.254Z,13.19
2018-05-03T19:36:43.157Z,13.04
2018-05-03T19:39:11.095Z,13.07
2018-05-03T19:41:39.044Z,13.01
2018-05-03T19:44:07.045Z,13.19
2018-05-03T19:46:34.978Z,13.03
2018-05-03T19:49:03.007Z,12.90
2018-05-03T19:51:30.896Z,12.93
2018-05-03T19:53:58.833Z,12.82
2018-05-03T19:56:26.781Z,12.88
2018-05-03T19:58:54.702Z,13.07
2018-05-03T20:01:22.619Z,13.22
2018-05-03T20:03:50.640Z,13.18
2018-05-03T20:06:18.761Z,13.04
2018-05-03T20:08:46.671Z,12.89
2018-05-03T20:11:14.635Z,12.91
2018-05-03T20:13:42.565Z,12.74
2018-05-03T20:16:10.572Z,12.55
2018-05-03T20:18:38.585Z,12.56
2018-05-03T20:21:06.481Z,12.57
2018-05-03T20:23:34.400Z,12.42
2018-05-03T20:26:02.341Z,12.53
2018-05-03T20:28:30.252Z,12.53
2018-05-03T20:30:58.194Z,12.72
2018-05-03T20:33:26.123Z,12.57
2018-05-03T20:35:54.099Z,12.46
2018-05-03T20:38:22.008Z,12.37
2018-05-03T20:40:49.928Z,11.94
2018-05-03T20:43:17.859Z,11.94
2018-05-03T20:45:45.761Z,11.94
2018-05-03T20:48:13.686Z,11.76
2018-05-03T20:50:41.775Z,11.85
2018-05-03T20:53:09.704Z,11.70
2018-05-03T20:55:37.619Z,11.71
2018-05-03T20:58:05.521Z,11.51
2018-05-03T21:00:33.499Z,11.40
2018-05-03T21:03:01.492Z,11.38
2018-05-03T21:05:29.900Z,11.36
2018-05-03T21:07:57.826Z,11.25
2018-05-03T21:10:25.774Z,11.36
2018-05-03T21:12:53.680Z,11.30
2018-05-03T21:15:21.610Z,11.17
2018-05-03T21:17:49.516Z,11.13
2018-05-03T21:20:17.447Z,11.31
2018-05-03T21:22:45.398Z,11.34
2018-05-03T21:25:13.325Z,11.10
2018-05-03T21:27:41.239Z,11.12
2018-05-03T21:30:09.143Z,11.20
2018-05-03T21:32:37.240Z,11.08
2018-05-03T21:35:05.185Z,11.00
2018-05-03T21:37:33.104Z,10.88
2018-05-03T21:40:01.060Z,10.88
2018-05-03T21:42:29.047Z,10.74
2018-05-03T21:44:57.012Z,10.71
2018-05-03T21:47:24.971Z,10.71
2018-05-03T21:49:52.864Z,10.68
2018-05-03T21:52:20.846Z,10.70
2018-05-03T21:54:48.729Z,10.62
2018-05-03T21:57:16.855Z,10.49
2018-05-03T21:59:45.402Z,10.39
2018-05-03T22:02:13.317Z,10.41
2018-05-03T22:04:41.232Z,10.48
2018-05-03T22:07:09.161Z,10.45
2018-05-03T22:09:37.078Z,10.44
2018-05-03T22:12:04.993Z,10.48
2018-05-03T22:14:32.949Z,10.44
2018-05-03T22:17:00.862Z,10.35
2018-05-03T22:19:28.814Z,10.34
2018-05-03T22:21:56.773Z,10.35
2018-05-03T22:24:24.672Z,10.36
2018-05-03T22:26:52.664Z,10.36
2018-05-03T22:29:20.587Z,10.23
2018-05-03T22:31:48.517Z,10.24
2018-05-03T22:34:16.487Z,10.24
2018-05-03T22:36:44.416Z,10.20
2018-05-03T22:39:12.365Z,10.23
2018-05-03T22:41:40.259Z,10.23
2018-05-03T22:44:08.180Z,10.15
2018-05-03T22:46:36.159Z,10.14
2018-05-03T22:49:04.117Z,10.15
2018-05-03T22:51:32.087Z,10.18
2018-05-03T22:54:00.073Z,10.12
2018-05-03T22:56:28.012Z,10.00
2018-05-03T22:58:55.968Z,9.98
2018-05-03T23:01:23.916Z,9.92
2018-05-03T23:03:51.819Z,9.86
2018-05-03T23:06:19.783Z,9.88
2018-05-03T23:08:47.711Z,9.86
2018-05-03T23:11:15.643Z,9.90
2018-05-03T23:13:43.540Z,9.85
2018-05-03T23:16:11.460Z,9.97
2018-05-03T23:18:39.400Z,9.89
2018-05-03T23:21:07.369Z,9.95
2018-05-03T23:23:35.266Z,9.84
2018-05-03T23:26:03.200Z,9.90
2018-05-03T23:28:31.122Z,9.81
2018-05-03T23:30:59.060Z,9.71
2018-05-03T23:33:27.009Z,9.84
2018-05-03T23:35:54.904Z,9.84
2018-05-03T23:38:22.842Z,9.71
2018-05-03T23:40:50.787Z,9.70
2018-05-03T23:43:18.709Z,9.61
2018-05-03T23:45:46.625Z,9.51
2018-05-03T23:48:14.527Z,9.59
2018-05-03T23:50:42.431Z,9.42
2018-05-03T23:53:10.338Z,9.42
2018-05-03T23:55:38.291Z,9.49
2018-05-03T23:58:06.206Z,9.48
